This is the latest recevied weather packets stored in our database for station/object EA3EH-1. If no packets are shown the sender has not sent any weather packets the latest 10 day(s).
| Time | Temp. | Humidity | Pressure | Rain* | Wind** | Luminosity | Snow |
|---|---|---|---|---|---|---|---|
| 1777515826 | 12.22° C | 69% | 1012 hPa | 0 mm | - | - | - |
| 1777515226 | 12.22° C | 68% | 1012 hPa | 0 mm | - | - | - |
| 1777514926 | 12.78° C | 68% | 1012 hPa | 0 mm | - | - | - |
| 1777514326 | 12.78° C | 68% | 1012 hPa | 0 mm | - | - | - |
| 1777513426 | 12.78° C | 68% | 1012 hPa | 0 mm | - | - | - |
| 1777513126 | 12.78° C | 69% | 1012 hPa | 0 mm | - | - | - |
| 1777512826 | 13.33° C | 69% | 1012 hPa | 0 mm | - | - | - |
| 1777511025 | 12.78° C | 67% | 1012 hPa | 0 mm | - | - | - |
| 1777510425 | 12.78° C | 66% | 1012 hPa | 0 mm | - | - | - |
| 1777500704 | 14.44° C | 54% | 1012 hPa | 0 mm | - | - | - |
| 1777500104 | 15° C | 54% | 1012 hPa | 0 mm | - | - | - |
| 1777499805 | 15° C | 53% | 1012 hPa | 0 mm | - | - | - |
| 1777498304 | 15.56° C | 51% | 1012 hPa | 0 mm | - | - | - |
| 1777493504 | 16.67° C | 47% | 1011 hPa | 0 mm | - | - | - |
| 1777491404 | 17.78° C | 43% | 1010 hPa | 0 mm | - | - | - |
| 1777490205 | 18.33° C | 37% | 1010 hPa | 0 mm | - | - | - |
| 1777486004 | 21.11° C | 24% | 1009 hPa | 0 mm | - | - | - |
| 1777484805 | 22.22° C | 22% | 1009 hPa | 0 mm | - | - | - |
| 1777483905 | 22.22° C | 21% | 1009 hPa | 0 mm | - | - | - |
| 1777483005 | 23.33° C | 15% | 1009 hPa | 0 mm | - | - | - |
| 1777482104 | 26.11° C | 12% | 1009 hPa | 0 mm | - | - | - |
| 1777480004 | 28.89° C | 11% | 1009 hPa | 0 mm | - | - | - |
| 1777478204 | 27.22° C | 14% | 1009 hPa | 0 mm | - | - | - |
| 1777474605 | 28.33° C | 11% | 1009 hPa | 0 mm | - | - | - |
| 1777472505 | 26.11° C | 12% | 1009 hPa | 0 mm | - | - | - |
* Rain latest hour (hover to see other rain measurements)
** Current wind speed in m/s (hover to see current wind gust speed)